createdAt,value
2023-01-19T00:00:37.579Z,71.33
2023-01-19T00:03:04.825Z,68.54
2023-01-19T00:05:31.333Z,70.46
2023-01-19T00:07:58.473Z,71.32
2023-01-19T00:10:25.116Z,70.79
2023-01-19T00:12:51.576Z,71.40
2023-01-19T00:15:18.111Z,70.55
2023-01-19T00:17:44.570Z,71.63
2023-01-19T00:20:11.364Z,70.27
2023-01-19T00:22:37.855Z,69.05
2023-01-19T00:25:04.490Z,68.99
2023-01-19T00:27:30.923Z,69.84
2023-01-19T00:29:57.373Z,70.43
2023-01-19T00:32:23.955Z,68.73
2023-01-19T00:34:50.463Z,68.38
2023-01-19T00:37:17.350Z,68.87
2023-01-19T00:39:43.888Z,69.85
2023-01-19T00:42:13.163Z,69.63
2023-01-19T00:44:39.652Z,68.95
2023-01-19T00:47:06.126Z,68.79
2023-01-19T00:49:32.616Z,68.31
2023-01-19T00:51:59.122Z,67.55
2023-01-19T00:54:26.925Z,66.38
2023-01-19T00:56:54.100Z,66.62
2023-01-19T00:59:20.565Z,65.47
2023-01-19T01:01:47.149Z,66.18
2023-01-19T01:04:14.432Z,64.97
2023-01-19T01:06:40.902Z,64.65
2023-01-19T01:09:07.387Z,64.70
2023-01-19T01:11:33.855Z,65.45
2023-01-19T01:14:00.312Z,66.57
2023-01-19T01:16:26.958Z,66.05
2023-01-19T01:18:53.419Z,65.75
2023-01-19T01:21:19.919Z,66.30
2023-01-19T01:23:46.415Z,65.58
2023-01-19T01:26:12.887Z,65.19
2023-01-19T01:28:39.352Z,65.29
2023-01-19T01:31:05.819Z,65.68
2023-01-19T01:33:40.718Z,66.98
2023-01-19T01:36:08.923Z,67.29
2023-01-19T01:38:35.380Z,66.16
2023-01-19T01:41:02.111Z,66.94
2023-01-19T01:43:52.533Z,68.46
2023-01-19T01:46:19.028Z,69.86
2023-01-19T01:48:54.723Z,68.67
2023-01-19T01:51:33.794Z,68.67
2023-01-19T01:54:10.415Z,67.85
2023-01-19T01:56:51.219Z,67.43
2023-01-19T01:59:32.270Z,69.05
2023-01-19T02:02:04.364Z,68.97
2023-01-19T02:04:32.063Z,69.24
2023-01-19T02:06:58.546Z,67.84
2023-01-19T02:09:31.300Z,68.88
2023-01-19T02:11:58.015Z,67.58
2023-01-19T02:14:24.547Z,67.23
2023-01-19T02:16:51.330Z,66.70
2023-01-19T02:19:28.115Z,67.23
2023-01-19T02:22:13.055Z,65.79
2023-01-19T02:24:39.913Z,63.86
2023-01-19T02:27:08.227Z,64.99
2023-01-19T02:29:35.438Z,65.04
2023-01-19T02:32:02.148Z,65.43
2023-01-19T02:34:30.060Z,66.54
2023-01-19T02:37:01.019Z,66.82
2023-01-19T02:39:32.601Z,67.33
2023-01-19T02:42:08.037Z,67.27
2023-01-19T02:44:37.556Z,67.51
2023-01-19T02:47:05.467Z,68.42
2023-01-19T02:49:32.027Z,68.27
2023-01-19T02:51:59.748Z,67.88
2023-01-19T02:54:59.428Z,67.40
2023-01-19T02:57:52.857Z,68.80
2023-01-19T03:00:31.759Z,70.77
2023-01-19T03:03:44.329Z,70.90
2023-01-19T03:06:39.415Z,70.89
2023-01-19T03:09:11.943Z,72.27
2023-01-19T03:11:46.835Z,73.45
2023-01-19T03:14:21.663Z,73.50
2023-01-19T03:16:57.269Z,74.65
2023-01-19T03:19:37.935Z,75.04
2023-01-19T03:22:12.758Z,75.26
2023-01-19T03:24:45.025Z,73.10
2023-01-19T03:27:42.951Z,72.46
2023-01-19T03:30:17.736Z,70.67
2023-01-19T03:32:56.466Z,71.61
2023-01-19T03:35:29.242Z,73.13
2023-01-19T03:37:56.324Z,72.64
2023-01-19T03:40:27.638Z,71.51
2023-01-19T03:42:56.303Z,71.06
2023-01-19T03:45:23.587Z,69.48
2023-01-19T03:47:50.662Z,69.22
2023-01-19T03:50:26.500Z,67.85
2023-01-19T03:53:12.109Z,67.15
2023-01-19T03:55:42.039Z,65.70
2023-01-19T03:58:08.616Z,65.69
2023-01-19T04:00:35.928Z,65.48
2023-01-19T04:03:04.039Z,64.42
2023-01-19T04:05:31.379Z,64.51
2023-01-19T04:07:57.961Z,65.25
2023-01-19T04:10:25.286Z,64.38
2023-01-19T04:13:01.017Z,63.46
2023-01-19T04:15:29.158Z,63.87
2023-01-19T04:18:00.323Z,63.16
2023-01-19T04:20:28.176Z,62.91
2023-01-19T04:22:58.693Z,64.21
2023-01-19T04:25:25.296Z,65.02
2023-01-19T04:27:52.590Z,65.43
2023-01-19T04:30:19.290Z,65.25
2023-01-19T04:32:47.925Z,65.95
2023-01-19T04:35:17.492Z,64.21
2023-01-19T04:37:44.028Z,63.88
2023-01-19T04:40:11.451Z,64.41
2023-01-19T04:42:37.907Z,63.50
2023-01-19T04:45:04.626Z,63.97
2023-01-19T04:47:31.081Z,63.97
2023-01-19T04:49:57.521Z,63.28
2023-01-19T04:52:23.980Z,62.44
2023-01-19T04:54:50.434Z,60.65
2023-01-19T04:57:16.881Z,62.14
2023-01-19T04:59:43.358Z,62.06
2023-01-19T05:02:09.858Z,61.29
2023-01-19T05:04:36.325Z,61.66
2023-01-19T05:07:02.769Z,62.37
2023-01-19T05:09:29.235Z,62.73
2023-01-19T05:11:55.772Z,62.52
2023-01-19T05:14:22.366Z,62.69
2023-01-19T05:16:48.814Z,62.11
2023-01-19T05:19:15.281Z,60.92
2023-01-19T05:21:41.765Z,61.86
2023-01-19T05:24:08.502Z,63.08
2023-01-19T05:26:35.004Z,63.81
2023-01-19T05:29:01.484Z,64.61
2023-01-19T05:31:28.006Z,64.57
2023-01-19T05:33:54.505Z,64.14
2023-01-19T05:36:21.015Z,64.16
2023-01-19T05:38:47.527Z,63.78
2023-01-19T05:41:13.983Z,63.72
2023-01-19T05:43:40.506Z,63.44
2023-01-19T05:46:06.975Z,63.30
2023-01-19T05:48:33.648Z,62.99
2023-01-19T05:51:01.389Z,61.60
2023-01-19T05:53:28.996Z,62.00
2023-01-19T05:56:07.741Z,61.66
2023-01-19T05:58:35.105Z,61.40
2023-01-19T06:01:03.418Z,61.36
2023-01-19T06:03:29.925Z,61.53
2023-01-19T06:05:58.113Z,61.41
2023-01-19T06:08:24.663Z,61.68
2023-01-19T06:10:51.271Z,62.00
2023-01-19T06:13:17.760Z,61.59
2023-01-19T06:15:44.787Z,60.93
2023-01-19T06:18:11.923Z,60.80
2023-01-19T06:20:38.497Z,61.07
2023-01-19T06:23:04.979Z,61.45
2023-01-19T06:25:31.504Z,61.06
2023-01-19T06:27:57.943Z,60.35
2023-01-19T06:30:24.454Z,60.30
2023-01-19T06:32:50.903Z,60.34
2023-01-19T06:35:17.394Z,60.62
2023-01-19T06:37:43.841Z,60.94
2023-01-19T06:40:13.615Z,60.33
2023-01-19T06:42:40.918Z,60.86
2023-01-19T06:45:08.144Z,61.16
2023-01-19T06:47:34.623Z,60.94
2023-01-19T06:50:01.110Z,61.27
2023-01-19T06:52:27.746Z,60.59
2023-01-19T06:54:54.216Z,60.84
2023-01-19T06:57:21.956Z,60.90
2023-01-19T06:59:48.418Z,61.17
2023-01-19T07:02:27.271Z,60.98
2023-01-19T07:04:55.659Z,61.69
2023-01-19T07:07:22.134Z,61.57
2023-01-19T07:09:48.685Z,62.35
2023-01-19T07:12:15.159Z,62.45
2023-01-19T07:14:42.189Z,62.60
2023-01-19T07:17:08.667Z,62.35
2023-01-19T07:19:35.202Z,62.61
2023-01-19T07:22:01.906Z,62.16
2023-01-19T07:24:28.863Z,62.67
2023-01-19T07:26:55.318Z,61.95
2023-01-19T07:29:24.591Z,62.65
2023-01-19T07:31:51.597Z,62.86
2023-01-19T07:34:18.093Z,63.23
2023-01-19T07:36:44.555Z,63.83
2023-01-19T07:39:11.070Z,63.62
2023-01-19T07:41:37.651Z,63.70
2023-01-19T07:44:04.389Z,63.04
2023-01-19T07:46:30.954Z,62.66
2023-01-19T07:48:57.455Z,62.66
2023-01-19T07:51:23.910Z,62.36
2023-01-19T07:53:50.974Z,62.44
2023-01-19T07:56:17.463Z,62.47
2023-01-19T07:58:43.939Z,61.16
2023-01-19T08:01:12.991Z,61.65
2023-01-19T08:03:39.600Z,61.42
2023-01-19T08:06:06.757Z,61.42
2023-01-19T08:08:34.180Z,61.23
2023-01-19T08:11:00.921Z,61.35
2023-01-19T08:13:27.655Z,61.53
2023-01-19T08:15:54.529Z,61.91
2023-01-19T08:18:21.437Z,62.16
2023-01-19T08:20:48.032Z,62.21
2023-01-19T08:23:14.703Z,62.15
2023-01-19T08:25:43.099Z,61.46
2023-01-19T08:28:12.898Z,61.50
2023-01-19T08:30:42.709Z,61.65
2023-01-19T08:33:09.350Z,61.53
2023-01-19T08:35:41.887Z,61.65
2023-01-19T08:38:09.975Z,60.00
2023-01-19T08:40:39.044Z,60.80
2023-01-19T08:43:09.147Z,61.43
2023-01-19T08:45:37.500Z,60.92
2023-01-19T08:48:04.857Z,60.83
2023-01-19T08:50:32.661Z,60.99
2023-01-19T08:53:01.774Z,60.86
2023-01-19T08:55:30.033Z,61.19
2023-01-19T08:57:57.874Z,60.71
2023-01-19T09:00:24.995Z,61.06
2023-01-19T09:02:51.555Z,60.20
2023-01-19T09:05:18.335Z,61.16
2023-01-19T09:07:46.297Z,62.23
2023-01-19T09:10:12.900Z,62.04
2023-01-19T09:12:39.540Z,60.66
2023-01-19T09:15:07.032Z,61.70
2023-01-19T09:17:33.565Z,61.83
2023-01-19T09:20:00.038Z,59.90
2023-01-19T09:22:26.524Z,59.66
2023-01-19T09:24:52.996Z,59.39
2023-01-19T09:27:19.464Z,59.72
2023-01-19T09:29:45.909Z,58.96
2023-01-19T09:32:12.379Z,56.82
2023-01-19T09:34:38.875Z,56.46
2023-01-19T09:37:05.325Z,55.69
2023-01-19T09:39:31.816Z,56.01
2023-01-19T09:42:19.298Z,56.70
2023-01-19T09:44:49.704Z,55.97
2023-01-19T09:47:24.733Z,57.33
2023-01-19T09:50:06.386Z,57.54
2023-01-19T09:52:41.398Z,58.65
2023-01-19T09:55:22.355Z,59.28
2023-01-19T09:57:48.826Z,58.54
2023-01-19T10:00:17.785Z,58.83
2023-01-19T10:02:54.453Z,58.50
2023-01-19T10:05:27.514Z,58.44
2023-01-19T10:08:17.422Z,57.50
2023-01-19T10:10:53.004Z,59.08
2023-01-19T10:13:34.298Z,59.20
2023-01-19T10:16:28.246Z,58.88
2023-01-19T10:19:23.011Z,58.29
2023-01-19T10:21:51.502Z,58.42
2023-01-19T10:24:26.379Z,57.30
2023-01-19T10:26:54.931Z,55.64
2023-01-19T10:29:33.904Z,55.44
2023-01-19T10:32:25.236Z,55.04
2023-01-19T10:34:53.203Z,54.64
2023-01-19T10:37:36.637Z,54.58
2023-01-19T10:40:08.822Z,55.21
2023-01-19T10:42:37.466Z,54.36
2023-01-19T10:45:14.585Z,53.97
2023-01-19T10:47:43.743Z,53.82
2023-01-19T10:50:23.784Z,53.13
2023-01-19T10:52:56.379Z,54.32
2023-01-19T10:55:31.820Z,55.19
2023-01-19T10:57:59.650Z,55.03
2023-01-19T11:00:41.851Z,54.54
2023-01-19T11:03:31.360Z,54.63
2023-01-19T11:06:26.229Z,55.59
2023-01-19T11:09:08.704Z,55.24
2023-01-19T11:11:44.078Z,53.89
2023-01-19T11:14:14.155Z,53.29
2023-01-19T11:16:47.976Z,53.37
2023-01-19T11:19:24.418Z,53.38
2023-01-19T11:21:51.264Z,53.18
2023-01-19T11:24:18.857Z,53.80
2023-01-19T11:26:50.126Z,53.80
2023-01-19T11:29:21.271Z,54.69
2023-01-19T11:31:48.665Z,53.33
2023-01-19T11:34:33.341Z,53.03
2023-01-19T11:37:08.659Z,54.60
2023-01-19T11:39:57.607Z,54.79
2023-01-19T11:42:26.010Z,55.00
2023-01-19T11:44:59.134Z,54.16
2023-01-19T11:47:30.530Z,54.93
2023-01-19T11:49:59.020Z,54.63
2023-01-19T11:52:37.511Z,54.42
2023-01-19T11:55:13.311Z,55.05
2023-01-19T11:57:47.300Z,55.49
2023-01-19T12:00:27.655Z,53.26
2023-01-19T12:03:23.034Z,53.78
2023-01-19T12:05:55.210Z,54.76
2023-01-19T12:08:29.325Z,55.12
2023-01-19T12:10:59.927Z,54.90
2023-01-19T12:13:27.831Z,55.12
2023-01-19T12:16:00.811Z,54.14
2023-01-19T12:18:40.388Z,54.81
2023-01-19T12:21:06.820Z,54.14
2023-01-19T12:23:42.413Z,53.76
2023-01-19T12:26:34.424Z,53.65
2023-01-19T12:29:11.089Z,54.15
2023-01-19T12:31:38.327Z,53.84
2023-01-19T12:34:23.565Z,54.57
2023-01-19T12:36:51.634Z,54.21
2023-01-19T12:39:21.096Z,53.00
2023-01-19T12:42:03.353Z,52.90
2023-01-19T12:44:31.625Z,53.38
2023-01-19T12:47:00.193Z,51.07
2023-01-19T12:49:29.454Z,50.68
2023-01-19T12:52:26.514Z,51.63
2023-01-19T12:55:02.057Z,52.01
2023-01-19T12:57:38.781Z,50.94
2023-01-19T13:00:27.415Z,50.80
2023-01-19T13:02:54.020Z,50.29
2023-01-19T13:05:33.568Z,49.67
2023-01-19T13:08:06.370Z,48.85
2023-01-19T13:11:11.994Z,46.98
2023-01-19T13:13:52.337Z,47.05
2023-01-19T13:16:19.044Z,45.86
2023-01-19T13:18:58.011Z,44.54
2023-01-19T13:21:44.802Z,45.27
2023-01-19T13:24:15.587Z,45.46
2023-01-19T13:26:51.151Z,45.16
2023-01-19T13:29:26.832Z,44.83
2023-01-19T13:31:54.415Z,44.54
2023-01-19T13:34:27.112Z,43.61
2023-01-19T13:36:57.201Z,43.69
2023-01-19T13:39:29.855Z,43.04
2023-01-19T13:42:02.189Z,43.46
2023-01-19T13:44:43.041Z,42.27
2023-01-19T13:47:25.705Z,42.09
2023-01-19T13:49:58.551Z,41.50
2023-01-19T13:52:28.306Z,42.65
2023-01-19T13:55:03.553Z,42.92
2023-01-19T13:57:33.460Z,43.26
2023-01-19T14:00:11.841Z,42.03
2023-01-19T14:02:40.513Z,41.37
2023-01-19T14:05:21.968Z,40.33
2023-01-19T14:07:58.868Z,39.46
2023-01-19T14:10:25.379Z,39.01
2023-01-19T14:13:01.976Z,38.46
2023-01-19T14:15:30.418Z,37.58
2023-01-19T14:18:30.484Z,36.83
2023-01-19T14:21:05.703Z,36.16
2023-01-19T14:23:43.125Z,35.79
2023-01-19T14:26:37.511Z,35.03
2023-01-19T14:29:09.858Z,34.31
2023-01-19T14:31:45.522Z,33.87
2023-01-19T14:34:33.142Z,34.52
2023-01-19T14:37:01.745Z,34.56
2023-01-19T14:39:32.814Z,33.87
2023-01-19T14:42:06.212Z,34.37
2023-01-19T14:44:37.635Z,33.40
2023-01-19T14:47:06.591Z,33.19
2023-01-19T14:49:40.754Z,33.17
2023-01-19T14:52:21.355Z,33.23
2023-01-19T14:54:48.963Z,33.66
2023-01-19T14:57:15.473Z,34.57
2023-01-19T14:59:42.455Z,34.55
2023-01-19T15:02:08.990Z,35.40
2023-01-19T15:04:35.592Z,35.67
2023-01-19T15:07:02.533Z,35.40
2023-01-19T15:09:29.105Z,36.28
2023-01-19T15:11:55.814Z,35.91
2023-01-19T15:14:22.693Z,35.54
2023-01-19T15:16:49.776Z,35.21
2023-01-19T15:19:17.752Z,34.71
2023-01-19T15:21:44.725Z,35.17
2023-01-19T15:24:12.395Z,35.63
2023-01-19T15:26:42.011Z,36.36
2023-01-19T15:29:23.315Z,36.35
2023-01-19T15:31:50.446Z,34.85
2023-01-19T15:34:17.022Z,35.63
2023-01-19T15:36:44.077Z,35.37
2023-01-19T15:39:11.159Z,36.21
2023-01-19T15:41:40.924Z,36.37
2023-01-19T15:44:10.294Z,36.54
2023-01-19T15:46:37.463Z,37.80
2023-01-19T15:49:04.288Z,37.89
2023-01-19T15:51:31.127Z,38.68
2023-01-19T15:53:57.604Z,38.37
2023-01-19T15:56:27.178Z,39.04
2023-01-19T15:58:54.780Z,40.10
2023-01-19T16:01:24.502Z,40.39
2023-01-19T16:03:51.078Z,41.20
2023-01-19T16:06:17.796Z,41.33
2023-01-19T16:08:44.474Z,42.09
2023-01-19T16:11:14.511Z,44.77
2023-01-19T16:13:44.464Z,46.61
2023-01-19T16:16:17.431Z,47.30
2023-01-19T16:18:44.368Z,48.34
2023-01-19T16:21:11.219Z,48.82
2023-01-19T16:23:38.022Z,50.63
2023-01-19T16:26:08.227Z,50.80
2023-01-19T16:28:36.765Z,51.61
2023-01-19T16:31:04.353Z,51.62
2023-01-19T16:33:30.839Z,53.20
2023-01-19T16:35:57.852Z,52.88
2023-01-19T16:38:24.453Z,52.13
2023-01-19T16:40:51.412Z,53.42
2023-01-19T16:43:17.864Z,55.10
2023-01-19T16:45:58.462Z,56.30
2023-01-19T16:48:26.412Z,56.68
2023-01-19T16:51:06.721Z,55.86
2023-01-19T16:53:34.358Z,56.62
2023-01-19T16:56:27.007Z,56.61
2023-01-19T16:58:58.549Z,55.99
2023-01-19T17:01:27.862Z,57.14
2023-01-19T17:03:55.415Z,57.02
2023-01-19T17:06:24.162Z,56.86
2023-01-19T17:08:52.443Z,57.52
2023-01-19T17:11:25.140Z,57.59
2023-01-19T17:13:56.118Z,58.29
2023-01-19T17:16:26.844Z,57.37
2023-01-19T17:18:54.036Z,58.04
2023-01-19T17:21:20.513Z,58.14
2023-01-19T17:23:49.723Z,59.38
2023-01-19T17:26:17.877Z,62.41
2023-01-19T17:28:44.783Z,62.81
2023-01-19T17:31:14.427Z,64.99
2023-01-19T17:33:44.478Z,65.16
2023-01-19T17:36:14.243Z,66.66
2023-01-19T17:38:41.624Z,65.66
2023-01-19T17:41:18.324Z,67.09
2023-01-19T17:43:45.290Z,66.52
2023-01-19T17:46:12.602Z,64.87
2023-01-19T17:48:39.675Z,63.60
2023-01-19T17:51:09.471Z,64.40
2023-01-19T17:53:38.252Z,65.36
2023-01-19T17:56:10.483Z,66.82
2023-01-19T17:58:37.884Z,68.20
2023-01-19T18:01:15.639Z,69.22
2023-01-19T18:03:43.182Z,70.45
2023-01-19T18:06:10.097Z,70.22
2023-01-19T18:08:42.516Z,71.64
2023-01-19T18:11:10.824Z,70.37
2023-01-19T18:13:38.765Z,72.68
2023-01-19T18:16:08.730Z,73.01
2023-01-19T18:18:36.903Z,72.86
2023-01-19T18:21:06.584Z,72.61
2023-01-19T18:23:33.663Z,74.48
2023-01-19T18:26:13.046Z,75.02
2023-01-19T18:28:39.783Z,74.74
2023-01-19T18:31:11.692Z,74.87
2023-01-19T18:33:39.276Z,74.86
2023-01-19T18:36:06.298Z,75.47
2023-01-19T18:38:33.788Z,75.63
2023-01-19T18:41:08.203Z,75.67
2023-01-19T18:43:34.883Z,74.23
2023-01-19T18:46:01.391Z,73.15
2023-01-19T18:48:27.939Z,71.72
2023-01-19T18:50:54.499Z,69.95
2023-01-19T18:53:21.043Z,70.56
2023-01-19T18:55:58.511Z,69.23
2023-01-19T18:58:25.719Z,69.13
2023-01-19T19:00:52.211Z,68.75
2023-01-19T19:03:18.716Z,68.50
2023-01-19T19:05:45.245Z,68.27
2023-01-19T19:08:12.269Z,67.45
2023-01-19T19:10:40.879Z,67.83
2023-01-19T19:13:08.209Z,64.81
2023-01-19T19:15:34.751Z,65.22
2023-01-19T19:18:01.202Z,67.13
2023-01-19T19:20:27.664Z,67.60
2023-01-19T19:22:55.095Z,66.28
2023-01-19T19:25:21.658Z,65.82
2023-01-19T19:27:52.492Z,66.33
2023-01-19T19:30:34.099Z,65.00
2023-01-19T19:33:00.640Z,63.69
2023-01-19T19:35:27.174Z,64.38
2023-01-19T19:37:53.650Z,64.31
2023-01-19T19:40:20.164Z,63.49
2023-01-19T19:42:46.632Z,62.99
2023-01-19T19:45:13.117Z,62.81
2023-01-19T19:47:39.601Z,63.72
2023-01-19T19:50:06.471Z,63.22
2023-01-19T19:52:37.975Z,61.65
2023-01-19T19:55:05.195Z,60.69
2023-01-19T19:57:31.663Z,61.26
2023-01-19T19:59:58.137Z,59.72
2023-01-19T20:02:24.604Z,59.07
2023-01-19T20:04:51.083Z,57.51
2023-01-19T20:07:18.067Z,56.22
2023-01-19T20:09:44.649Z,55.52
2023-01-19T20:12:11.231Z,55.65
2023-01-19T20:14:37.747Z,54.98
2023-01-19T20:17:04.343Z,54.61
2023-01-19T20:19:32.531Z,56.09
2023-01-19T20:21:59.195Z,55.54
2023-01-19T20:24:25.688Z,56.09
2023-01-19T20:26:53.271Z,55.22
2023-01-19T20:29:20.240Z,56.87
2023-01-19T20:31:54.161Z,56.02
2023-01-19T20:34:23.436Z,55.77
2023-01-19T20:36:49.950Z,56.05
2023-01-19T20:39:18.330Z,56.11
2023-01-19T20:41:45.656Z,56.53
2023-01-19T20:44:15.472Z,57.30
2023-01-19T20:46:42.966Z,56.00
2023-01-19T20:49:09.528Z,55.75
2023-01-19T20:51:36.092Z,57.72
2023-01-19T20:54:03.180Z,57.66
2023-01-19T20:56:29.648Z,57.32
2023-01-19T20:58:57.810Z,57.96
2023-01-19T21:01:24.990Z,57.13
2023-01-19T21:03:52.004Z,57.58
2023-01-19T21:06:19.950Z,58.35
2023-01-19T21:08:47.606Z,58.39
2023-01-19T21:11:14.359Z,59.11
2023-01-19T21:13:41.047Z,58.88
2023-01-19T21:16:07.979Z,58.21
2023-01-19T21:18:34.544Z,58.35
2023-01-19T21:21:01.027Z,58.93
2023-01-19T21:23:27.846Z,58.07
2023-01-19T21:25:57.550Z,58.23
2023-01-19T21:28:25.737Z,59.86
2023-01-19T21:30:53.891Z,59.96
2023-01-19T21:33:23.383Z,61.30
2023-01-19T21:35:54.753Z,61.15
2023-01-19T21:38:23.731Z,60.08
2023-01-19T21:40:50.401Z,59.28
2023-01-19T21:43:17.301Z,58.13
2023-01-19T21:45:43.760Z,57.82
2023-01-19T21:48:10.289Z,55.84
2023-01-19T21:50:36.838Z,56.24
2023-01-19T21:53:04.540Z,55.19
2023-01-19T21:55:31.204Z,53.45
2023-01-19T21:57:57.679Z,53.43
2023-01-19T22:00:24.269Z,52.71
2023-01-19T22:03:03.101Z,52.31
2023-01-19T22:05:30.140Z,52.14
2023-01-19T22:07:56.671Z,51.93
2023-01-19T22:10:23.151Z,51.73
2023-01-19T22:12:49.680Z,51.59
2023-01-19T22:15:16.200Z,51.44
2023-01-19T22:17:42.688Z,50.48
2023-01-19T22:20:09.613Z,51.16
2023-01-19T22:22:36.071Z,50.39
2023-01-19T22:25:03.042Z,50.76
2023-01-19T22:27:30.476Z,51.43
2023-01-19T22:29:56.959Z,52.03
2023-01-19T22:32:23.482Z,54.23
2023-01-19T22:34:49.964Z,55.15
2023-01-19T22:37:16.450Z,55.18
2023-01-19T22:39:42.971Z,54.97
2023-01-19T22:42:09.468Z,54.83
2023-01-19T22:44:35.946Z,54.77
2023-01-19T22:47:02.597Z,54.21
2023-01-19T22:49:29.183Z,53.96
2023-01-19T22:51:55.852Z,52.81
2023-01-19T22:54:22.335Z,52.77
2023-01-19T22:56:49.237Z,53.44
2023-01-19T22:59:15.932Z,52.82
2023-01-19T23:01:44.182Z,52.64
2023-01-19T23:04:14.102Z,51.80
2023-01-19T23:06:40.583Z,51.30
2023-01-19T23:09:12.881Z,51.88
2023-01-19T23:11:42.379Z,51.80
2023-01-19T23:14:14.109Z,51.08
2023-01-19T23:16:40.671Z,51.20
2023-01-19T23:19:07.333Z,51.26
2023-01-19T23:21:34.267Z,51.77
2023-01-19T23:24:03.229Z,51.57
2023-01-19T23:26:31.116Z,50.66
2023-01-19T23:29:00.858Z,51.14
2023-01-19T23:31:31.682Z,51.03
2023-01-19T23:34:00.743Z,51.13
2023-01-19T23:36:29.776Z,51.74
2023-01-19T23:39:16.589Z,53.43
2023-01-19T23:41:43.871Z,53.67
2023-01-19T23:44:10.485Z,52.98
2023-01-19T23:46:43.750Z,53.78
2023-01-19T23:49:10.469Z,54.28
2023-01-19T23:51:36.938Z,54.63
2023-01-19T23:54:03.648Z,55.57
2023-01-19T23:56:33.804Z,55.43
2023-01-19T23:59:04.361Z,55.81
